createdAt,value
2018-07-19T00:00:07.330Z,0
2018-07-19T00:01:09.323Z,0
2018-07-19T00:03:07.129Z,0
2018-07-19T00:04:09.415Z,0
2018-07-19T00:05:07.438Z,0
2018-07-19T00:06:07.476Z,0
2018-07-19T00:07:07.760Z,0
2018-07-19T00:08:08.858Z,0
2018-07-19T00:09:07.815Z,0
2018-07-19T00:10:07.828Z,0
2018-07-19T00:11:36.888Z,0
2018-07-19T00:12:07.341Z,0
2018-07-19T00:13:07.630Z,0
2018-07-19T00:14:08.836Z,0
2018-07-19T00:15:07.679Z,0
2018-07-19T00:16:22.613Z,0
2018-07-19T00:17:07.716Z,0
2018-07-19T00:19:08.087Z,0
2018-07-19T00:20:07.826Z,0
2018-07-19T00:21:08.109Z,0
2018-07-19T00:22:08.194Z,0
2018-07-19T00:23:08.144Z,0
2018-07-19T00:24:07.994Z,0
2018-07-19T00:25:09.160Z,0
2018-07-19T00:26:08.237Z,0
2018-07-19T00:27:22.900Z,0
2018-07-19T00:28:08.270Z,0
2018-07-19T00:29:23.272Z,0
2018-07-19T00:30:07.795Z,0
2018-07-19T00:31:08.367Z,0
2018-07-19T00:32:08.100Z,0
2018-07-19T00:33:09.833Z,0
2018-07-19T00:34:08.521Z,0
2018-07-19T00:35:23.107Z,0
2018-07-19T00:36:08.402Z,0
2018-07-19T00:37:08.504Z,0
2018-07-19T00:38:22.887Z,0
2018-07-19T00:39:08.264Z,0
2018-07-19T00:40:10.084Z,0
2018-07-19T00:41:08.045Z,0
2018-07-19T00:42:08.619Z,0
2018-07-19T00:43:23.289Z,0
2018-07-19T00:44:23.862Z,0
2018-07-19T00:45:08.442Z,0
2018-07-19T00:46:08.270Z,0
2018-07-19T00:47:08.747Z,0
2018-07-19T00:48:08.760Z,0
2018-07-19T00:49:08.510Z,0
2018-07-19T00:50:08.311Z,0
2018-07-19T00:52:08.318Z,0
2018-07-19T00:54:08.903Z,0
2018-07-19T00:55:10.277Z,0
2018-07-19T00:56:08.700Z,0
2018-07-19T00:57:08.705Z,0
2018-07-19T00:58:23.644Z,0
2018-07-19T00:59:09.080Z,0
2018-07-19T01:00:08.789Z,0
2018-07-19T01:01:08.908Z,0
2018-07-19T01:02:08.292Z,0
2018-07-19T01:03:09.957Z,0
2018-07-19T01:04:08.876Z,0
2018-07-19T01:05:08.900Z,0
2018-07-19T01:06:09.342Z,0
2018-07-19T01:07:09.231Z,0
2018-07-19T01:08:09.260Z,0
2018-07-19T01:10:09.353Z,0
2018-07-19T01:11:09.058Z,0
2018-07-19T01:12:09.345Z,0
2018-07-19T01:13:09.737Z,0
2018-07-19T01:14:08.911Z,0
2018-07-19T01:15:09.436Z,0
2018-07-19T01:16:09.163Z,0
2018-07-19T01:17:10.302Z,0
2018-07-19T01:18:24.145Z,0
2018-07-19T01:19:09.259Z,0
2018-07-19T01:20:10.385Z,0
2018-07-19T01:21:09.563Z,0
2018-07-19T01:22:09.315Z,0
2018-07-19T01:23:10.401Z,0
2018-07-19T01:24:09.639Z,0
2018-07-19T01:25:24.303Z,0
2018-07-19T01:26:11.185Z,0
2018-07-19T01:27:09.433Z,0
2018-07-19T01:28:09.740Z,0
2018-07-19T01:29:09.751Z,0
2018-07-19T01:30:25.065Z,0
2018-07-19T01:31:09.522Z,0
2018-07-19T01:32:09.820Z,0
2018-07-19T01:33:09.855Z,0
2018-07-19T01:34:11.420Z,0
2018-07-19T01:36:09.653Z,0
2018-07-19T01:37:09.951Z,0
2018-07-19T01:38:10.262Z,0
2018-07-19T01:39:09.460Z,0
2018-07-19T01:41:09.771Z,0
2018-07-19T01:42:11.459Z,0
2018-07-19T01:43:09.822Z,0
2018-07-19T01:44:09.308Z,0
2018-07-19T01:45:11.120Z,0
2018-07-19T01:46:25.197Z,0
2018-07-19T01:47:10.196Z,0
2018-07-19T01:48:10.235Z,0
2018-07-19T01:49:09.962Z,0
2018-07-19T01:50:10.002Z,0
2018-07-19T01:51:11.224Z,0
2018-07-19T01:53:09.806Z,0
2018-07-19T01:54:11.947Z,0
2018-07-19T01:55:25.053Z,0
2018-07-19T01:56:24.518Z,0
2018-07-19T01:57:10.816Z,0
2018-07-19T01:58:10.206Z,0
2018-07-19T01:59:10.042Z,0
2018-07-19T02:00:12.072Z,0
2018-07-19T02:01:09.993Z,0
2018-07-19T02:02:25.205Z,0
2018-07-19T02:04:10.983Z,0
2018-07-19T02:05:10.638Z,0
2018-07-19T02:07:11.486Z,0
2018-07-19T02:08:10.699Z,0
2018-07-19T02:09:10.722Z,0
2018-07-19T02:10:12.643Z,0
2018-07-19T02:12:10.258Z,0
2018-07-19T02:13:11.384Z,0
2018-07-19T02:14:25.224Z,0
2018-07-19T02:15:10.595Z,0
2018-07-19T02:17:12.707Z,0
2018-07-19T02:18:40.247Z,0
2018-07-19T02:19:10.697Z,0
2018-07-19T02:20:12.545Z,4
2018-07-19T02:21:10.469Z,4
2018-07-19T02:22:11.055Z,4
2018-07-19T02:23:11.114Z,4
2018-07-19T02:24:10.549Z,0
2018-07-19T02:25:10.560Z,0
2018-07-19T02:26:13.005Z,4
2018-07-19T02:27:10.893Z,4
2018-07-19T02:28:25.826Z,4
2018-07-19T02:29:12.064Z,4
2018-07-19T02:31:11.276Z,8
2018-07-19T02:32:12.862Z,4
2018-07-19T02:33:27.109Z,8
2018-07-19T02:34:11.322Z,8
2018-07-19T02:36:26.451Z,12
2018-07-19T02:37:26.053Z,12
2018-07-19T02:38:11.163Z,16
2018-07-19T02:39:12.510Z,16
2018-07-19T02:40:11.468Z,20
2018-07-19T02:42:13.079Z,20
2018-07-19T02:43:11.537Z,24
2018-07-19T02:44:11.329Z,28
2018-07-19T02:45:13.079Z,32
2018-07-19T02:46:11.074Z,36
2018-07-19T02:47:26.111Z,40
2018-07-19T02:48:12.865Z,44
2018-07-19T02:49:11.670Z,48
2018-07-19T02:50:11.722Z,56
2018-07-19T02:51:11.721Z,56
2018-07-19T02:52:13.462Z,68
2018-07-19T02:53:11.761Z,72
2018-07-19T02:54:11.532Z,76
2018-07-19T02:55:12.665Z,84
2018-07-19T02:56:11.573Z,92
2018-07-19T02:57:11.338Z,104
2018-07-19T02:58:11.913Z,112
2018-07-19T02:59:26.670Z,124
2018-07-19T03:00:11.402Z,132
2018-07-19T03:01:11.699Z,140
2018-07-19T03:02:13.837Z,156
2018-07-19T03:03:11.855Z,172
2018-07-19T03:04:12.051Z,184
2018-07-19T03:05:26.703Z,200
2018-07-19T03:06:12.307Z,212
2018-07-19T03:07:11.863Z,232
2018-07-19T03:08:12.975Z,248
2018-07-19T03:09:12.161Z,268
2018-07-19T03:10:11.926Z,288
2018-07-19T03:11:11.944Z,308
2018-07-19T03:12:12.693Z,336
2018-07-19T03:13:26.894Z,364
2018-07-19T03:14:12.279Z,384
2018-07-19T03:15:12.935Z,416
2018-07-19T03:16:12.333Z,448
2018-07-19T03:17:12.341Z,480
2018-07-19T03:18:13.985Z,512
2018-07-19T03:20:12.423Z,580
2018-07-19T03:21:26.830Z,628
2018-07-19T03:22:12.189Z,656
2018-07-19T03:23:26.882Z,712
2018-07-19T03:24:13.209Z,744
2018-07-19T03:25:26.656Z,808
2018-07-19T03:26:12.306Z,844
2018-07-19T03:27:12.576Z,896
2018-07-19T03:28:14.143Z,952
2018-07-19T03:29:12.645Z,1000
2018-07-19T03:30:27.347Z,1068
2018-07-19T03:31:13.685Z,1108
2018-07-19T03:34:14.643Z,1264
2018-07-19T03:35:12.784Z,1324
2018-07-19T03:36:12.534Z,1380
2018-07-19T03:37:27.481Z,1440
2018-07-19T03:38:12.568Z,1468
2018-07-19T03:39:12.866Z,1500
2018-07-19T03:40:27.641Z,1552
2018-07-19T03:41:13.475Z,1588
2018-07-19T03:42:12.688Z,1652
2018-07-19T03:43:12.710Z,1732
2018-07-19T03:44:14.830Z,1832
2018-07-19T03:45:13.028Z,1932
2018-07-19T03:46:27.697Z,2040
2018-07-19T03:47:14.962Z,2092
2018-07-19T03:48:12.822Z,2144
2018-07-19T03:49:13.118Z,2196
2018-07-19T03:50:14.687Z,2272
2018-07-19T03:51:27.817Z,2444
2018-07-19T03:52:12.943Z,2616
2018-07-19T03:53:28.068Z,2900
2018-07-19T03:54:27.879Z,2792
2018-07-19T03:55:13.265Z,2708
2018-07-19T03:56:15.213Z,2856
2018-07-19T03:57:12.765Z,3020
2018-07-19T03:58:13.055Z,3248
2018-07-19T03:59:15.143Z,3484
2018-07-19T04:00:13.374Z,3692
2018-07-19T04:01:13.155Z,3856
2018-07-19T04:02:13.717Z,3988
2018-07-19T04:03:13.175Z,4104
2018-07-19T04:04:13.509Z,4160
2018-07-19T04:05:13.230Z,4160
2018-07-19T04:06:13.787Z,4328
2018-07-19T04:07:13.543Z,4628
2018-07-19T04:09:15.167Z,5088
2018-07-19T04:10:13.632Z,5280
2018-07-19T04:11:13.642Z,5552
2018-07-19T04:12:14.278Z,6376
2018-07-19T04:13:13.425Z,7220
2018-07-19T04:14:13.717Z,5980
2018-07-19T04:15:13.750Z,6064
2018-07-19T04:16:14.755Z,7452
2018-07-19T04:17:13.799Z,8368
2018-07-19T04:18:13.845Z,8840
2018-07-19T04:19:13.996Z,15392
2018-07-19T04:20:13.336Z,13312
2018-07-19T04:21:28.544Z,9904
2018-07-19T04:22:13.632Z,9048
2018-07-19T04:23:14.726Z,9096
2018-07-19T04:24:28.638Z,7092
2018-07-19T04:25:14.508Z,6104
2018-07-19T04:26:29.198Z,5164
2018-07-19T04:27:14.023Z,5364
2018-07-19T04:28:14.042Z,6072
2018-07-19T04:29:13.814Z,6836
2018-07-19T04:30:15.015Z,7776
2018-07-19T04:31:14.131Z,8060
2018-07-19T04:32:13.897Z,9144
2018-07-19T04:33:15.443Z,10252
2018-07-19T04:35:28.875Z,10744
2018-07-19T04:36:14.252Z,9660
2018-07-19T04:37:29.381Z,9004
2018-07-19T04:38:14.546Z,9168
2018-07-19T04:39:14.313Z,8984
2018-07-19T04:40:28.987Z,11644
2018-07-19T04:41:14.369Z,10992
2018-07-19T04:42:14.389Z,9500
2018-07-19T04:44:15.296Z,19488
2018-07-19T04:45:14.478Z,30400
2018-07-19T04:46:14.497Z,33888
2018-07-19T04:47:15.204Z,26144
2018-07-19T04:48:14.393Z,33408
2018-07-19T04:49:14.594Z,40192
2018-07-19T04:50:29.629Z,38560
2018-07-19T04:51:14.604Z,36992
2018-07-19T04:52:14.371Z,36416
2018-07-19T04:53:14.664Z,38784
2018-07-19T04:54:15.969Z,41056
2018-07-19T04:55:14.448Z,41824
2018-07-19T04:56:29.393Z,40160
2018-07-19T04:57:16.510Z,40320
2018-07-19T04:58:14.546Z,43040
2018-07-19T04:59:14.553Z,43840
2018-07-19T05:01:14.625Z,47104
2018-07-19T05:02:15.059Z,46080
2018-07-19T05:04:16.373Z,49728
2018-07-19T05:05:14.989Z,52064
2018-07-19T05:06:29.396Z,54464
2018-07-19T05:07:14.785Z,55232
2018-07-19T05:09:15.110Z,55040
2018-07-19T05:10:14.862Z,57120
2018-07-19T05:11:17.139Z,55328
2018-07-19T05:12:30.324Z,56864
2018-07-19T05:13:14.941Z,55392
2018-07-19T05:14:16.507Z,53632
2018-07-19T05:15:15.288Z,54048
2018-07-19T05:16:15.301Z,54016
2018-07-19T05:17:14.795Z,56800
2018-07-19T05:18:16.848Z,52448
2018-07-19T05:19:29.781Z,48064
2018-07-19T05:20:15.435Z,44608
2018-07-19T05:21:15.185Z,45504
2018-07-19T05:22:16.838Z,46560
2018-07-19T05:23:15.890Z,46304
2018-07-19T05:24:15.544Z,44800
2018-07-19T05:25:16.309Z,49120
2018-07-19T05:26:15.351Z,47232
2018-07-19T05:27:15.368Z,51136
2018-07-19T05:28:44.984Z,52160
2018-07-19T05:29:16.520Z,53216
2018-07-19T05:30:15.201Z,55616
2018-07-19T05:31:15.771Z,57088
2018-07-19T05:33:15.816Z,57600
2018-07-19T05:34:30.250Z,63232
2018-07-19T05:35:17.022Z,62400
2018-07-19T05:36:15.934Z,67072
2018-07-19T05:37:15.687Z,74368
2018-07-19T05:38:15.717Z,69696
2018-07-19T05:39:16.047Z,71200
2018-07-19T05:41:16.085Z,69376
2018-07-19T05:42:17.292Z,73472
2018-07-19T05:43:31.700Z,74784
2018-07-19T05:44:15.941Z,73056
2018-07-19T05:45:16.216Z,77984
2018-07-19T05:46:16.273Z,78560
2018-07-19T05:47:17.278Z,69120
2018-07-19T05:48:30.969Z,69984
2018-07-19T05:49:16.335Z,71392
2018-07-19T05:50:16.810Z,70592
2018-07-19T05:51:15.865Z,75488
2018-07-19T05:52:16.436Z,27616
2018-07-19T05:53:16.555Z,79840
2018-07-19T05:54:17.128Z,71104
2018-07-19T05:55:16.539Z,72096
2018-07-19T05:56:16.566Z,73088
2018-07-19T05:57:18.507Z,40032
2018-07-19T05:58:16.958Z,21728
2018-07-19T06:00:18.579Z,43296
2018-07-19T06:01:16.731Z,57056
2018-07-19T06:02:16.755Z,24928
2018-07-19T06:03:18.573Z,24160
2018-07-19T06:04:16.835Z,63616
2018-07-19T06:06:18.553Z,83808
2018-07-19T06:07:16.919Z,79488
2018-07-19T06:08:16.421Z,72128
2018-07-19T06:09:17.668Z,76864
2018-07-19T06:10:16.499Z,75840
2018-07-19T06:11:17.054Z,72096
2018-07-19T06:12:16.834Z,78560
2018-07-19T06:13:17.283Z,84992
2018-07-19T06:14:16.708Z,86016
2018-07-19T06:16:31.933Z,85088
2018-07-19T06:17:31.916Z,77920
2018-07-19T06:18:18.119Z,64288
2018-07-19T06:19:17.053Z,50272
2018-07-19T06:20:17.357Z,54656
2018-07-19T06:21:18.401Z,40800
2018-07-19T06:22:17.195Z,28320
2018-07-19T06:24:18.403Z,37280
2018-07-19T06:25:17.618Z,75456
2018-07-19T06:26:17.304Z,80928
2018-07-19T06:27:18.863Z,79616
2018-07-19T06:28:32.291Z,61280
2018-07-19T06:29:17.682Z,81536
2018-07-19T06:30:18.330Z,75808
2018-07-19T06:31:32.531Z,77056
2018-07-19T06:32:17.778Z,77472
2018-07-19T06:33:19.124Z,81536
2018-07-19T06:34:17.545Z,70560
2018-07-19T06:35:17.857Z,16240
2018-07-19T06:36:17.922Z,23808
2018-07-19T06:37:17.958Z,14664
2018-07-19T06:38:17.694Z,12084
2018-07-19T06:39:17.741Z,12868
2018-07-19T06:40:17.783Z,9504
2018-07-19T06:41:32.159Z,13808
2018-07-19T06:42:32.840Z,9552
2018-07-19T06:43:32.519Z,8572
2018-07-19T06:44:17.897Z,8604
2018-07-19T06:45:18.691Z,9788
2018-07-19T06:46:17.946Z,9984
2018-07-19T06:47:32.880Z,8776
2018-07-19T06:48:19.879Z,8840
2018-07-19T06:50:18.337Z,8796
2018-07-19T06:51:19.776Z,10112
2018-07-19T06:52:18.471Z,11524
2018-07-19T06:53:18.404Z,11704
2018-07-19T06:54:19.031Z,11408
2018-07-19T06:55:18.480Z,10660
2018-07-19T06:56:18.505Z,10264
2018-07-19T06:57:19.713Z,9508
2018-07-19T06:58:18.568Z,8368
2018-07-19T07:00:18.343Z,6252
2018-07-19T07:01:19.842Z,5556
2018-07-19T07:02:18.690Z,5240
2018-07-19T07:03:48.050Z,5312
2018-07-19T07:04:20.408Z,5224
2018-07-19T07:05:18.795Z,4588
2018-07-19T07:06:33.453Z,4460
2018-07-19T07:07:19.644Z,4892
2018-07-19T07:08:18.597Z,6012
2018-07-19T07:09:33.647Z,6240
2018-07-19T07:10:20.461Z,5636
2018-07-19T07:11:18.923Z,5020
2018-07-19T07:12:18.950Z,4508
2018-07-19T07:13:19.527Z,4420
2018-07-19T07:14:18.760Z,4252
2018-07-19T07:15:19.044Z,4240
2018-07-19T07:16:19.363Z,4616
2018-07-19T07:17:19.522Z,4908
2018-07-19T07:18:33.775Z,4784
2018-07-19T07:19:18.881Z,4688
2018-07-19T07:20:19.335Z,4848
2018-07-19T07:21:19.617Z,5292
2018-07-19T07:22:18.986Z,5624
2018-07-19T07:23:20.919Z,5672
2018-07-19T07:24:19.308Z,5472
2018-07-19T07:25:19.329Z,5168
2018-07-19T07:26:20.876Z,4852
2018-07-19T07:27:19.375Z,4828
2018-07-19T07:28:19.629Z,4984
2018-07-19T07:29:20.930Z,5024
2018-07-19T07:30:34.102Z,4576
2018-07-19T07:31:19.215Z,4188
2018-07-19T07:32:20.629Z,3716
2018-07-19T07:33:19.649Z,3484
2018-07-19T07:34:18.753Z,3460
2018-07-19T07:35:19.580Z,3424
2018-07-19T07:36:34.272Z,3856
2018-07-19T07:37:19.658Z,3988
2018-07-19T07:38:20.681Z,4300
2018-07-19T07:39:19.703Z,4540
2018-07-19T07:40:19.733Z,4868
2018-07-19T07:41:21.161Z,5092
2018-07-19T07:42:19.822Z,5016
2018-07-19T07:43:19.848Z,4952
2018-07-19T07:44:21.856Z,5360
2018-07-19T07:45:19.876Z,5620
2018-07-19T07:46:19.906Z,5524
2018-07-19T07:47:20.201Z,5352
2018-07-19T07:48:20.209Z,5376
2018-07-19T07:50:34.631Z,4740
2018-07-19T07:51:21.614Z,4952
2018-07-19T07:52:34.682Z,5336
2018-07-19T07:53:20.063Z,5784
2018-07-19T07:54:21.806Z,6328
2018-07-19T07:55:19.859Z,6420
2018-07-19T07:56:20.158Z,6032
2018-07-19T07:57:21.036Z,5400
2018-07-19T07:58:20.185Z,4880
2018-07-19T07:59:20.491Z,4316
2018-07-19T08:00:19.718Z,3616
2018-07-19T08:01:22.201Z,3232
2018-07-19T08:02:20.279Z,2872
2018-07-19T08:03:20.310Z,3296
2018-07-19T08:04:19.811Z,3656
2018-07-19T08:05:20.208Z,3360
2018-07-19T08:06:35.045Z,3344
2018-07-19T08:07:20.548Z,3236
2018-07-19T08:08:35.098Z,3184
2018-07-19T08:09:35.140Z,3156
2018-07-19T08:10:19.970Z,2968
2018-07-19T08:11:36.380Z,2768
2018-07-19T08:12:20.549Z,2736
2018-07-19T08:13:22.314Z,2776
2018-07-19T08:14:35.280Z,2812
2018-07-19T08:15:20.367Z,2840
2018-07-19T08:16:36.260Z,2932
2018-07-19T08:17:20.693Z,2960
2018-07-19T08:18:20.715Z,2920
2018-07-19T08:20:20.497Z,2740
2018-07-19T08:21:35.441Z,2644
2018-07-19T08:22:35.480Z,2720
2018-07-19T08:23:20.842Z,2804
2018-07-19T08:24:20.863Z,2876
2018-07-19T08:25:20.092Z,2936
2018-07-19T08:26:20.991Z,2984
2018-07-19T08:27:20.669Z,3056
2018-07-19T08:28:20.963Z,3116
2018-07-19T08:29:22.407Z,3100
2018-07-19T08:31:21.051Z,3052
2018-07-19T08:32:35.188Z,3116
2018-07-19T08:33:35.495Z,3208
2018-07-19T08:35:22.475Z,3072
2018-07-19T08:36:21.303Z,3116
2018-07-19T08:37:21.197Z,3208
2018-07-19T08:39:36.257Z,3268
2018-07-19T08:40:21.000Z,3260
2018-07-19T08:43:21.349Z,3088
2018-07-19T08:44:36.036Z,3240
2018-07-19T08:45:21.592Z,3396
2018-07-19T08:46:36.089Z,3476
2018-07-19T08:47:21.179Z,3476
2018-07-19T08:48:22.329Z,3420
2018-07-19T08:49:21.492Z,3580
2018-07-19T08:50:21.530Z,3696
2018-07-19T08:51:22.341Z,3820
2018-07-19T08:53:35.991Z,4252
2018-07-19T08:54:36.236Z,4412
2018-07-19T08:55:21.678Z,4400
2018-07-19T08:57:23.355Z,4124
2018-07-19T08:58:21.766Z,3980
2018-07-19T08:59:21.777Z,3720
2018-07-19T09:00:37.539Z,3516
2018-07-19T09:02:22.181Z,3580
2018-07-19T09:03:22.441Z,3656
2018-07-19T09:04:22.410Z,3792
2018-07-19T09:05:21.915Z,3924
2018-07-19T09:06:21.926Z,4040
2018-07-19T09:07:22.916Z,4112
2018-07-19T09:09:21.756Z,3932
2018-07-19T09:11:22.083Z,3768
2018-07-19T09:12:22.105Z,3796
2018-07-19T09:13:22.138Z,3848
2018-07-19T09:14:22.728Z,3868
2018-07-19T09:15:22.174Z,3840
2018-07-19T09:16:22.219Z,3768
2018-07-19T09:17:23.870Z,3744
2018-07-19T09:18:22.241Z,3748
2018-07-19T09:19:36.890Z,3824
2018-07-19T09:21:23.176Z,3936
2018-07-19T09:22:22.370Z,3984
2018-07-19T09:23:22.382Z,4108
2018-07-19T09:24:23.593Z,4228
2018-07-19T09:25:37.933Z,4348
2018-07-19T09:26:22.453Z,4464
2018-07-19T09:27:22.497Z,4636
2018-07-19T09:28:24.254Z,4836
2018-07-19T09:29:22.515Z,5044
2018-07-19T09:30:22.567Z,5256
2018-07-19T09:31:24.349Z,5428
2018-07-19T09:32:22.355Z,5540
2018-07-19T09:33:22.093Z,5620
2018-07-19T09:34:23.046Z,5704
2018-07-19T09:35:23.250Z,5792
2018-07-19T09:36:22.716Z,5856
2018-07-19T09:37:22.736Z,5924
2018-07-19T09:38:24.583Z,6028
2018-07-19T09:39:22.530Z,6124
2018-07-19T09:40:22.824Z,6204
2018-07-19T09:41:37.487Z,6208
2018-07-19T09:42:22.606Z,6164
2018-07-19T09:43:22.929Z,6080
2018-07-19T09:44:22.382Z,5996
2018-07-19T09:45:24.574Z,5928
2018-07-19T09:46:37.610Z,5880
2018-07-19T09:47:22.733Z,5876
2018-07-19T09:48:24.362Z,5888
2018-07-19T09:49:23.039Z,5888
2018-07-19T09:51:23.621Z,5896
2018-07-19T09:52:23.490Z,5964
2018-07-19T09:53:23.138Z,6072
2018-07-19T09:54:23.182Z,6204
2018-07-19T09:55:24.868Z,6328
2018-07-19T09:56:23.220Z,6420
2018-07-19T09:57:37.901Z,6472
2018-07-19T09:58:24.750Z,6464
2018-07-19T09:59:23.387Z,6452
2018-07-19T10:00:23.328Z,6452
2018-07-19T10:01:22.807Z,6440
2018-07-19T10:02:23.664Z,6476
2018-07-19T10:03:23.401Z,6580
2018-07-19T10:04:23.170Z,6748
2018-07-19T10:05:39.054Z,6992
2018-07-19T10:06:23.213Z,7104
2018-07-19T10:07:23.502Z,7176
2018-07-19T10:08:37.911Z,7252
2018-07-19T10:09:24.232Z,7324
2018-07-19T10:10:23.928Z,7404
2018-07-19T10:11:38.257Z,7440
2018-07-19T10:12:24.288Z,7452
2018-07-19T10:13:39.556Z,7412
2018-07-19T10:14:23.670Z,7408
2018-07-19T10:15:23.742Z,7408
2018-07-19T10:16:25.282Z,7404
2018-07-19T10:17:23.994Z,7456
2018-07-19T10:18:23.256Z,7548
2018-07-19T10:19:23.816Z,7604
2018-07-19T10:20:24.518Z,7592
2018-07-19T10:21:23.588Z,7480
2018-07-19T10:22:23.618Z,7328
2018-07-19T10:23:24.894Z,7192
2018-07-19T10:24:23.834Z,7144
2018-07-19T10:25:23.969Z,7156
2018-07-19T10:26:24.007Z,7228
2018-07-19T10:27:24.843Z,7336
2018-07-19T10:28:40.229Z,7476
2018-07-19T10:30:23.852Z,7660
2018-07-19T10:31:38.899Z,7716
2018-07-19T10:32:24.893Z,7740
2018-07-19T10:33:24.164Z,7744
2018-07-19T10:34:26.025Z,7752
2018-07-19T10:35:23.965Z,7760
2018-07-19T10:36:23.982Z,7788
2018-07-19T10:37:24.291Z,7860
2018-07-19T10:38:39.542Z,8012
2018-07-19T10:39:24.341Z,8132
2018-07-19T10:40:24.353Z,8264
2018-07-19T10:42:26.112Z,8404
2018-07-19T10:43:39.094Z,8408
2018-07-19T10:44:24.749Z,8396
2018-07-19T10:45:24.208Z,8356
2018-07-19T10:46:39.521Z,8284
2018-07-19T10:47:24.040Z,8276
2018-07-19T10:48:24.289Z,8244
2018-07-19T10:50:24.589Z,8060
2018-07-19T10:51:24.604Z,8088
2018-07-19T10:52:24.639Z,8236
2018-07-19T10:53:24.671Z,8456
2018-07-19T10:54:24.424Z,8700
2018-07-19T10:55:24.716Z,8832
2018-07-19T10:57:24.571Z,8836
2018-07-19T10:58:24.789Z,8900
2018-07-19T10:59:24.556Z,8972
2018-07-19T11:01:24.871Z,9004
2018-07-19T11:02:24.638Z,8996
2018-07-19T11:03:24.918Z,8916
2018-07-19T11:04:24.941Z,8796
2018-07-19T11:05:39.634Z,8728
2018-07-19T11:06:24.751Z,8640
2018-07-19T11:07:25.028Z,8408
2018-07-19T11:08:25.050Z,8156
2018-07-19T11:09:25.159Z,7940
2018-07-19T11:11:24.873Z,7712
2018-07-19T11:12:24.902Z,7684
2018-07-19T11:13:25.181Z,7720
2018-07-19T11:14:25.211Z,7700
2018-07-19T11:15:39.896Z,7592
2018-07-19T11:16:39.405Z,7468
2018-07-19T11:17:24.766Z,7372
2018-07-19T11:18:25.307Z,7212
2018-07-19T11:19:25.436Z,7032
2018-07-19T11:20:25.357Z,6828
2018-07-19T11:21:25.391Z,6580
2018-07-19T11:22:25.417Z,6292
2018-07-19T11:23:25.480Z,6088
2018-07-19T11:24:25.473Z,5944
2018-07-19T11:25:24.980Z,5768
2018-07-19T11:26:39.922Z,5568
2018-07-19T11:27:25.542Z,5456
2018-07-19T11:28:25.514Z,5292
2018-07-19T11:29:25.600Z,5104
2018-07-19T11:30:25.367Z,4928
2018-07-19T11:31:25.647Z,4764
2018-07-19T11:32:40.334Z,4608
2018-07-19T11:33:25.703Z,4548
2018-07-19T11:35:25.936Z,4584
2018-07-19T11:36:25.781Z,4640
2018-07-19T11:37:40.472Z,4696
2018-07-19T11:38:25.578Z,4712
2018-07-19T11:39:25.858Z,4720
2018-07-19T11:40:25.881Z,4728
2018-07-19T11:41:25.905Z,4708
2018-07-19T11:42:25.676Z,4692
2018-07-19T11:43:25.960Z,4728
2018-07-19T11:44:25.983Z,4820
2018-07-19T11:45:40.678Z,4920
2018-07-19T11:46:25.778Z,4952
2018-07-19T11:47:26.063Z,4952
2018-07-19T11:48:40.849Z,5004
2018-07-19T11:49:40.776Z,5112
2018-07-19T11:50:25.887Z,5208
2018-07-19T11:51:26.171Z,5364
2018-07-19T11:52:26.191Z,5532
2018-07-19T11:53:25.964Z,5680
2018-07-19T11:54:26.254Z,5800
2018-07-19T11:55:26.264Z,5888
2018-07-19T11:56:26.296Z,5920
2018-07-19T11:57:26.062Z,5912
2018-07-19T11:58:26.349Z,5908
2018-07-19T11:59:41.039Z,5928
2018-07-19T12:00:26.403Z,5952
2018-07-19T12:01:26.169Z,5960
2018-07-19T12:02:26.454Z,5992
2018-07-19T12:03:41.139Z,6092
2018-07-19T12:05:40.934Z,6380
2018-07-19T12:06:26.557Z,6548
2018-07-19T12:07:26.587Z,6844
2018-07-19T12:08:26.612Z,7120
2018-07-19T12:09:26.639Z,7400
2018-07-19T12:10:26.660Z,7652
2018-07-19T12:11:26.438Z,7760
2018-07-19T12:12:26.465Z,7800
2018-07-19T12:13:41.137Z,7736
2018-07-19T12:14:26.508Z,7684
2018-07-19T12:15:26.785Z,7640
2018-07-19T12:16:26.824Z,7560
2018-07-19T12:17:26.836Z,7476
2018-07-19T12:18:26.868Z,7408
2018-07-19T12:19:26.886Z,7364
2018-07-19T12:20:26.655Z,7380
2018-07-19T12:21:26.944Z,7440
2018-07-19T12:22:26.453Z,7460
2018-07-19T12:23:26.992Z,7464
2018-07-19T12:24:27.080Z,7532
2018-07-19T12:25:26.789Z,7688
2018-07-19T12:26:27.073Z,7880
2018-07-19T12:27:26.838Z,8096
2018-07-19T12:28:26.863Z,8352
2018-07-19T12:29:27.149Z,8528
2018-07-19T12:30:41.834Z,8872
2018-07-19T12:31:27.445Z,9160
2018-07-19T12:32:27.230Z,9480
2018-07-19T12:33:27.260Z,9612
2018-07-19T12:34:27.062Z,9620
2018-07-19T12:35:41.708Z,9480
2018-07-19T12:36:26.814Z,9380
2018-07-19T12:37:27.352Z,9220
2018-07-19T12:38:27.385Z,8972
2018-07-19T12:40:27.441Z,8484
2018-07-19T12:41:27.458Z,8304
2018-07-19T12:44:27.346Z,7924
2018-07-19T12:45:41.714Z,7808
2018-07-19T12:46:27.072Z,7716
2018-07-19T12:47:26.838Z,7524
2018-07-19T12:48:42.049Z,7320
2018-07-19T12:49:27.407Z,7204
2018-07-19T12:50:27.690Z,7092
2018-07-19T12:51:42.419Z,6996
2018-07-19T12:52:42.403Z,6980
2018-07-19T12:53:27.786Z,6960
2018-07-19T12:54:42.456Z,6932
2018-07-19T12:55:42.222Z,6912
2018-07-19T12:56:27.590Z,6908
2018-07-19T12:57:27.614Z,6876
2018-07-19T12:58:27.896Z,6796
2018-07-19T12:59:42.584Z,6720
2018-07-19T13:00:28.013Z,6700
2018-07-19T13:01:42.384Z,6680
2018-07-19T13:03:27.787Z,6596
2018-07-19T13:04:28.051Z,6604
2018-07-19T13:05:27.856Z,6672
2018-07-19T13:06:27.852Z,6700
2018-07-19T13:07:42.532Z,6704
2018-07-19T13:08:28.159Z,6688
2018-07-19T13:09:27.663Z,6632
2018-07-19T13:10:28.207Z,6544
2018-07-19T13:11:42.893Z,6416
2018-07-19T13:12:28.260Z,6344
2018-07-19T13:13:27.768Z,6244
2018-07-19T13:14:27.905Z,6132
2018-07-19T13:15:28.335Z,6040
2018-07-19T13:16:28.364Z,5984
2018-07-19T13:17:28.398Z,5916
2018-07-19T13:18:28.429Z,5820
2018-07-19T13:19:28.183Z,5716
2018-07-19T13:21:28.239Z,5540
2018-07-19T13:22:28.263Z,5468
2018-07-19T13:23:43.209Z,5380
2018-07-19T13:24:28.312Z,5336
2018-07-19T13:25:43.260Z,5320
2018-07-19T13:26:28.627Z,5332
2018-07-19T13:27:28.652Z,5396
2018-07-19T13:28:28.420Z,5488
2018-07-19T13:29:28.698Z,5636
2018-07-19T13:30:43.131Z,5884
2018-07-19T13:31:28.752Z,6056
2018-07-19T13:32:28.520Z,6264
2018-07-19T13:33:28.809Z,6508
2018-07-19T13:34:28.830Z,6816
2018-07-19T13:35:28.600Z,7196
2018-07-19T13:36:28.998Z,7536
2018-07-19T13:37:28.414Z,7848
2018-07-19T13:38:43.597Z,8280
2018-07-19T13:39:28.449Z,8536
2018-07-19T13:40:28.737Z,8812
2018-07-19T13:41:43.675Z,9028
2018-07-19T13:42:28.789Z,9156
2018-07-19T13:43:28.813Z,9272
2018-07-19T13:45:29.124Z,9316
2018-07-19T13:46:28.892Z,9296
2018-07-19T13:47:43.830Z,9272
2018-07-19T13:48:43.874Z,9248
2018-07-19T13:49:28.974Z,9232
2018-07-19T13:50:28.992Z,9204
2018-07-19T13:51:29.067Z,9216
2018-07-19T13:52:29.302Z,9256
2018-07-19T13:53:29.073Z,9292
2018-07-19T13:54:29.102Z,9332
2018-07-19T13:55:29.379Z,9328
2018-07-19T13:56:29.161Z,9272
2018-07-19T13:57:29.175Z,9164
2018-07-19T13:58:29.036Z,9004
2018-07-19T13:59:29.230Z,8988
2018-07-19T14:00:29.516Z,8516
2018-07-19T14:01:29.540Z,8272
2018-07-19T14:02:29.568Z,8068
2018-07-19T14:03:29.083Z,7892
2018-07-19T14:04:29.114Z,7740
2018-07-19T14:05:29.646Z,7640
2018-07-19T14:06:29.685Z,7560
2018-07-19T14:07:29.699Z,7548
2018-07-19T14:08:29.772Z,7632
2018-07-19T14:09:29.495Z,7744
2018-07-19T14:10:59.105Z,7848
2018-07-19T14:11:29.807Z,7880
2018-07-19T14:12:29.834Z,7952
2018-07-19T14:13:29.874Z,8092
2018-07-19T14:14:29.928Z,8196
2018-07-19T14:15:29.918Z,8360
2018-07-19T14:16:29.685Z,8600
2018-07-19T14:17:29.970Z,8592
2018-07-19T14:18:44.655Z,8676
2018-07-19T14:19:29.761Z,8728
2018-07-19T14:20:29.789Z,8756
2018-07-19T14:21:30.072Z,8796
2018-07-19T14:22:30.106Z,8856
2018-07-19T14:23:29.610Z,8860
2018-07-19T14:24:29.897Z,8856
2018-07-19T14:25:44.596Z,8836
2018-07-19T14:26:59.533Z,8824
2018-07-19T14:27:29.722Z,8784
2018-07-19T14:28:30.268Z,8700
2018-07-19T14:29:29.770Z,8616
2018-07-19T14:30:30.072Z,8572
2018-07-19T14:31:30.337Z,8720